Time;durP1;ratioP1;P1;durP2;ratioP2;P2;SDS_P1;SDS_P2;PMS_P1;PMS_P2;Temp;Humidity;BMP_temperature;BMP_pressure;BME280_temperature;BME280_humidity;BME280_pressure;Samples;Min_cycle;Max_cycle;Signal;HPM_P1;HPM_P2
2021/01/29 00:00:29;;;;;;;1.80;1.27;;;1.10;99.90;;;;;;4941692;29;20505;-48
2021/01/29 00:02:56;;;;;;;3.77;1.80;;;1.00;99.90;;;;;;4935141;29;20497;-50
2021/01/29 00:05:25;;;;;;;5.13;1.90;;;1.00;99.90;;;;;;4941836;29;20441;-51
2021/01/29 00:07:52;;;;;;;2.10;1.60;;;1.00;99.90;;;;;;4942311;29;20489;-50
2021/01/29 00:10:18;;;;;;;3.43;1.60;;;1.10;99.90;;;;;;4941897;29;20448;-52
2021/01/29 00:12:45;;;;;;;5.27;2.30;;;1.10;99.90;;;;;;4942266;29;20434;-49
2021/01/29 00:15:17;;;;;;;2.10;1.90;;;1.20;99.90;;;;;;4941837;29;20434;-51
2021/01/29 00:17:43;;;;;;;4.43;1.57;;;1.20;99.90;;;;;;4940968;29;20444;-51
2021/01/29 00:20:14;;;;;;;3.50;1.20;;;1.20;99.90;;;;;;4940715;29;20481;-47
2021/01/29 00:22:41;;;;;;;1.57;1.10;;;1.20;99.90;;;;;;4940444;29;20498;-49
2021/01/29 00:25:10;;;;;;;3.90;1.70;;;1.20;99.90;;;;;;4940507;29;20445;-52
2021/01/29 00:27:36;;;;;;;2.87;1.17;;;1.20;99.90;;;;;;4941429;29;20501;-48
2021/01/29 00:30:08;;;;;;;2.53;1.90;;;1.20;99.90;;;;;;4941784;29;20477;-60
2021/01/29 00:32:35;;;;;;;10.73;1.70;;;1.20;99.90;;;;;;4940625;29;20425;-47
2021/01/29 00:35:01;;;;;;;2.00;1.47;;;1.10;99.90;;;;;;4940758;29;20464;-50
2021/01/29 00:37:28;;;;;;;2.10;1.27;;;1.10;99.90;;;;;;4940920;29;20457;-49
2021/01/29 00:39:54;;;;;;;1.67;1.03;;;1.10;99.90;;;;;;4940265;29;20489;-50
2021/01/29 00:42:20;;;;;;;8.43;1.47;;;1.10;99.90;;;;;;4940279;29;20426;-50
2021/01/29 00:44:47;;;;;;;3.53;1.90;;;1.10;99.90;;;;;;4940230;29;20450;-50
2021/01/29 00:47:13;;;;;;;1.70;1.00;;;1.10;99.90;;;;;;4939660;29;20444;-49
2021/01/29 00:49:40;;;;;;;3.77;1.37;;;1.10;99.90;;;;;;4940365;29;20430;-48
2021/01/29 00:52:06;;;;;;;3.40;1.20;;;1.20;99.90;;;;;;4940238;29;20469;-46
2021/01/29 00:54:33;;;;;;;4.20;1.63;;;1.20;99.90;;;;;;4940390;29;20442;-45
2021/01/29 00:56:59;;;;;;;5.00;2.20;;;1.20;99.90;;;;;;4939607;29;20454;-47
2021/01/29 00:59:26;;;;;;;6.60;2.00;;;1.20;99.90;;;;;;4939453;29;20453;-52
2021/01/29 01:01:52;;;;;;;1.97;1.37;;;1.20;99.90;;;;;;4940222;29;20449;-46
2021/01/29 01:04:18;;;;;;;1.40;1.17;;;1.30;99.90;;;;;;4939727;29;20449;-51
2021/01/29 01:06:45;;;;;;;1.90;1.30;;;1.20;99.90;;;;;;4939918;29;20446;-49
2021/01/29 01:09:12;;;;;;;3.33;1.63;;;1.20;99.90;;;;;;4939750;29;20448;-51
2021/01/29 01:11:38;;;;;;;1.53;1.30;;;1.20;99.90;;;;;;4939649;29;20438;-46
2021/01/29 01:14:05;;;;;;;2.80;1.20;;;1.20;99.90;;;;;;4939814;29;20449;-48
2021/01/29 01:16:32;;;;;;;2.10;1.57;;;1.20;99.90;;;;;;4940456;29;20433;-51
2021/01/29 01:18:58;;;;;;;1.70;1.23;;;1.20;99.90;;;;;;4940048;29;20454;-46
2021/01/29 01:21:27;;;;;;;4.03;1.43;;;1.20;99.90;;;;;;4940214;29;20503;-46
2021/01/29 01:23:54;;;;;;;2.07;1.60;;;1.20;99.90;;;;;;4927204;29;20532;-51
2021/01/29 01:26:20;;;;;;;4.47;1.20;;;1.20;99.90;;;;;;4917430;29;20521;-50
2021/01/29 01:28:47;;;;;;;3.43;1.83;;;1.20;99.90;;;;;;4917156;29;20456;-49
2021/01/29 01:31:13;;;;;;;3.37;1.60;;;1.30;99.90;;;;;;4917399;29;20496;-46
2021/01/29 01:33:39;;;;;;;2.93;1.53;;;1.30;99.90;;;;;;4917337;29;20457;-49
2021/01/29 01:36:06;;;;;;;3.63;1.63;;;1.30;99.90;;;;;;4916991;29;20496;-45
2021/01/29 01:38:32;;;;;;;2.13;1.33;;;1.30;99.90;;;;;;4917148;29;20839;-48
2021/01/29 01:40:59;;;;;;;2.67;1.60;;;1.30;99.90;;;;;;4914241;29;20833;-50
2021/01/29 01:43:28;;;;;;;1.23;1.13;;;1.30;99.90;;;;;;4917689;29;20537;-46
2021/01/29 01:46:05;;;;;;;5.43;1.40;;;1.60;99.90;;;;;;4904068;29;20446;-45
2021/01/29 01:48:41;;;;;;;1.93;1.23;;;1.30;99.90;;;;;;4908374;29;20449;-46
2021/01/29 01:51:12;;;;;;;3.03;1.23;;;1.30;99.90;;;;;;4921203;29;20496;-46
2021/01/29 01:53:42;;;;;;;3.10;1.77;;;1.30;99.90;;;;;;4921635;29;20441;-47
2021/01/29 01:56:18;;;;;;;4.93;2.10;;;1.30;99.90;;;;;;4921379;29;20450;-45
2021/01/29 01:58:49;;;;;;;4.03;1.30;;;1.30;99.90;;;;;;4921229;29;20501;-46
2021/01/29 02:01:16;;;;;;;9.70;1.63;;;1.30;99.90;;;;;;4911221;29;20482;-49
2021/01/29 02:03:42;;;;;;;4.30;1.70;;;1.40;99.90;;;;;;4909691;29;20476;-48
2021/01/29 02:06:11;;;;;;;5.90;1.60;;;1.30;99.90;;;;;;4899891;29;20482;-46
2021/01/29 05:33:32;;;;;;;2.63;2.10;;;1.10;99.90;;;;;;5057304;23;20309;-52
2021/01/29 05:36:12;;;;;;;9.57;2.10;;;1.10;99.90;;;;;;4999321;28;20415;-49
2021/01/29 05:39:03;;;;;;;1.60;1.00;;;1.10;99.90;;;;;;4999277;28;20415;-48
2021/01/29 05:42:06;;;;;;;3.43;1.90;;;1.10;99.90;;;;;;4999242;28;20466;-50
2021/01/29 05:45:08;;;;;;;8.50;2.20;;;1.10;99.90;;;;;;4999197;28;20451;-51
2021/01/29 05:47:52;;;;;;;6.93;2.17;;;1.00;99.90;;;;;;4998517;28;20453;-52
2021/01/29 05:50:34;;;;;;;7.83;2.20;;;1.00;99.90;;;;;;4999043;28;20427;-48
2021/01/29 05:53:22;;;;;;;2.60;2.40;;;1.00;99.90;;;;;;4998713;28;20419;-51
2021/01/29 05:55:57;;;;;;;7.67;3.13;;;1.10;99.90;;;;;;4998882;28;20438;-51
2021/01/29 05:58:58;;;;;;;4.03;2.30;;;1.10;99.90;;;;;;4999020;28;20508;-47
2021/01/29 06:01:58;;;;;;;3.97;2.53;;;1.10;99.90;;;;;;4982295;28;20486;-54
2021/01/29 06:04:55;;;;;;;5.30;2.17;;;1.10;99.90;;;;;;5000565;28;20435;-50
2021/01/29 06:07:49;;;;;;;3.50;2.10;;;1.10;99.90;;;;;;5002641;28;20465;-48
2021/01/29 06:10:40;;;;;;;5.67;2.93;;;1.10;99.90;;;;;;5002261;28;20442;-49
2021/01/29 06:13:52;;;;;;;4.47;2.23;;;1.10;99.90;;;;;;5002633;28;20431;-54
2021/01/29 06:16:48;;;;;;;3.47;2.17;;;1.00;99.90;;;;;;5002121;28;20462;-48
2021/01/29 06:19:45;;;;;;;11.50;3.17;;;1.00;99.90;;;;;;4986372;28;20449;-49
2021/01/29 06:22:44;;;;;;;5.87;2.50;;;1.00;99.90;;;;;;4989495;28;20465;-47
2021/01/29 06:25:28;;;;;;;4.43;2.10;;;1.00;99.90;;;;;;5002284;28;20446;-51
2021/01/29 06:28:46;;;;;;;8.83;2.50;;;0.90;99.90;;;;;;5002119;28;20442;-49
2021/01/29 06:31:56;;;;;;;6.53;2.47;;;0.90;99.90;;;;;;5001845;28;20438;-51
2021/01/29 06:34:48;;;;;;;8.70;2.27;;;0.90;99.90;;;;;;4924119;29;20438;-53
2021/01/29 06:37:28;;;;;;;3.20;2.30;;;0.90;99.90;;;;;;4924977;29;20431;-50
2021/01/29 06:40:04;;;;;;;5.00;3.07;;;0.90;99.90;;;;;;4979532;28;20437;-46
2021/01/29 06:43:05;;;;;;;4.17;2.07;;;0.90;99.90;;;;;;5002346;28;20411;-49
2021/01/29 06:46:12;;;;;;;6.93;3.80;;;1.00;99.90;;;;;;4988200;28;20486;-49
2021/01/29 06:49:06;;;;;;;8.10;3.63;;;1.00;99.90;;;;;;4952283;28;20441;-47
2021/01/29 06:52:17;;;;;;;3.37;2.90;;;1.00;99.90;;;;;;4932791;28;20438;-50
2021/01/29 06:55:13;;;;;;;4.60;2.50;;;0.90;99.90;;;;;;4957234;28;20454;-53
2021/01/29 06:58:11;;;;;;;6.00;3.27;;;0.90;99.90;;;;;;5007991;28;20445;-46
2021/01/29 07:01:01;;;;;;;3.83;2.90;;;0.90;99.90;;;;;;4987674;28;20557;-51
2021/01/29 07:04:02;;;;;;;3.47;2.57;;;0.90;99.90;;;;;;5000915;28;20456;-51
2021/01/29 07:06:49;;;;;;;4.87;2.93;;;0.90;99.90;;;;;;5021041;28;20481;-50
2021/01/29 07:09:27;;;;;;;3.70;2.50;;;0.90;99.90;;;;;;5021161;28;20414;-55
2021/01/29 07:12:24;;;;;;;4.53;3.50;;;0.90;99.90;;;;;;5020958;28;20426;-51
2021/01/29 07:15:01;;;;;;;3.83;2.60;;;0.90;99.90;;;;;;5021199;28;20540;-53
2021/01/29 07:17:57;;;;;;;2.27;1.50;;;1.00;99.90;;;;;;5020934;28;20437;-49
2021/01/29 07:20:39;;;;;;;5.33;2.53;;;1.00;99.90;;;;;;5013418;28;20458;-51
2021/01/29 07:23:26;;;;;;;12.67;2.60;;;1.00;99.90;;;;;;5021461;28;20414;-53
2021/01/29 07:26:07;;;;;;;6.30;2.13;;;1.00;99.90;;;;;;5021249;28;20418;-54
2021/01/29 07:28:47;;;;;;;4.33;2.47;;;1.00;99.90;;;;;;5020753;28;20433;-47
2021/01/29 07:31:20;;;;;;;12.90;3.17;;;1.10;99.90;;;;;;5020370;28;20431;-45
2021/01/29 07:33:53;;;;;;;4.67;2.40;;;1.10;99.90;;;;;;5020468;28;20427;-45
2021/01/29 07:36:43;;;;;;;4.53;3.53;;;1.10;99.90;;;;;;5020203;28;20470;-48
2021/01/29 07:39:38;;;;;;;11.40;3.17;;;1.10;99.90;;;;;;5020620;28;20464;-55
2021/01/29 07:42:23;;;;;;;4.27;2.77;;;1.10;99.90;;;;;;4968745;28;20477;-47
2021/01/29 07:45:00;;;;;;;5.73;2.60;;;1.10;99.90;;;;;;5020590;28;20415;-57
2021/01/29 07:47:43;;;;;;;3.53;2.47;;;1.10;99.90;;;;;;5010130;28;20431;-52
2021/01/29 07:50:28;;;;;;;6.70;2.63;;;1.10;99.90;;;;;;5000665;28;20450;-46
2021/01/29 07:53:03;;;;;;;3.10;2.70;;;1.10;99.90;;;;;;5000681;28;20425;-46
2021/01/29 07:55:38;;;;;;;7.40;3.13;;;1.10;99.90;;;;;;4987284;28;20439;-52
2021/01/29 07:58:35;;;;;;;8.10;2.97;;;1.10;99.90;;;;;;4981649;28;20443;-50
2021/01/29 08:06:17;;;;;;;5.33;2.90;;;1.20;99.90;;;;;;5636254;23;20492;-49
2021/01/29 08:08:51;;;;;;;3.47;2.10;;;1.30;99.90;;;;;;5019820;28;20505;-49
2021/01/29 08:11:19;;;;;;;4.17;2.13;;;1.30;99.90;;;;;;5384398;23;20480;-47
2021/01/29 08:14:20;;;;;;;7.50;3.60;;;1.50;99.90;;;;;;5143655;23;20485;-50
2021/01/29 08:17:07;;;;;;;5.87;2.80;;;1.30;99.90;;;;;;4901392;29;20480;-47
2021/01/29 08:19:47;;;;;;;6.07;2.40;;;1.40;99.90;;;;;;4940943;29;20446;-52
2021/01/29 08:22:34;;;;;;;5.57;3.60;;;1.50;99.90;;;;;;4940340;29;20480;-52
2021/01/29 08:25:13;;;;;;;9.90;3.93;;;1.50;99.90;;;;;;4940575;29;20422;-47
2021/01/29 08:28:25;;;;;;;4.33;3.37;;;1.50;99.90;;;;;;4940142;29;20618;-49
2021/01/29 08:31:42;;;;;;;9.23;3.00;;;1.60;99.90;;;;;;4939952;29;20444;-50
2021/01/29 08:34:36;;;;;;;4.80;3.43;;;1.70;99.90;;;;;;4846415;29;20473;-47
2021/01/29 08:37:14;;;;;;;5.27;3.23;;;1.70;99.90;;;;;;4921036;29;20477;-52
2021/01/29 08:39:50;;;;;;;8.27;3.90;;;1.80;99.90;;;;;;4940138;29;20468;-48
2021/01/29 08:42:30;;;;;;;5.60;3.40;;;1.80;99.90;;;;;;4937908;29;20477;-50
2021/01/29 08:45:21;;;;;;;8.03;3.70;;;1.90;99.90;;;;;;4936225;29;20453;-50
2021/01/29 08:48:18;;;;;;;8.40;2.80;;;1.90;99.90;;;;;;4942492;29;20476;-53
2021/01/29 08:51:05;;;;;;;5.30;2.60;;;1.90;99.90;;;;;;4942626;29;20449;-45
2021/01/29 08:54:07;;;;;;;4.50;2.73;;;1.90;99.90;;;;;;4932279;29;20410;-45
2021/01/29 08:56:43;;;;;;;4.40;2.93;;;1.80;99.90;;;;;;4932543;29;20445;-50
2021/01/29 08:59:15;;;;;;;4.00;3.10;;;1.80;99.90;;;;;;4930380;29;20512;-46
2021/01/29 09:01:54;;;;;;;13.00;4.17;;;1.90;99.90;;;;;;4920286;29;20466;-53
2021/01/29 09:04:25;;;;;;;5.70;3.53;;;1.90;99.90;;;;;;4933803;29;20457;-49
2021/01/29 09:06:56;;;;;;;10.07;3.43;;;1.90;99.90;;;;;;4934127;29;20449;-48
2021/01/29 09:09:25;;;;;;;4.63;2.80;;;1.80;99.90;;;;;;4934178;29;20446;-49
2021/01/29 09:11:56;;;;;;;3.70;2.40;;;1.90;99.90;;;;;;4928771;29;20454;-47
2021/01/29 09:14:27;;;;;;;9.67;4.93;;;1.90;99.90;;;;;;4915721;29;20486;-55
2021/01/29 09:17:02;;;;;;;8.13;3.40;;;1.90;99.90;;;;;;4914176;29;20459;-54
2021/01/29 09:19:29;;;;;;;5.10;3.17;;;2.00;99.90;;;;;;4939940;29;20428;-50
2021/01/29 09:22:06;;;;;;;10.43;2.80;;;2.00;99.90;;;;;;4940017;29;20480;-55
2021/01/29 09:24:41;;;;;;;3.27;2.30;;;2.00;99.90;;;;;;4939704;29;20446;-51
2021/01/29 09:27:32;;;;;;;3.90;2.10;;;2.00;99.90;;;;;;4940370;29;20457;-49
2021/01/29 09:30:03;;;;;;;13.60;2.97;;;2.00;99.90;;;;;;4939700;29;20467;-50
2021/01/29 09:32:52;;;;;;;6.03;2.47;;;2.00;99.90;;;;;;4927402;29;20438;-51
2021/01/29 09:35:31;;;;;;;5.93;2.70;;;2.00;99.90;;;;;;4937911;29;20465;-53
2021/01/29 09:38:00;;;;;;;8.93;3.30;;;2.10;99.90;;;;;;4940528;29;20514;-48
2021/01/29 09:40:30;;;;;;;13.03;3.43;;;2.10;99.90;;;;;;4946144;29;20532;-47
2021/01/29 09:43:12;;;;;;;5.43;3.20;;;2.00;99.90;;;;;;4942136;29;20469;-46
2021/01/29 09:45:55;;;;;;;3.13;2.10;;;2.00;99.90;;;;;;4941163;29;20425;-47
2021/01/29 09:48:24;;;;;;;6.07;3.07;;;2.10;99.90;;;;;;4943692;29;20456;-51
2021/01/29 09:51:06;;;;;;;5.93;2.40;;;2.10;99.90;;;;;;4965991;29;20452;-49
2021/01/29 09:53:44;;;;;;;5.27;3.00;;;2.20;99.90;;;;;;4965731;29;20447;-47
2021/01/29 09:56:18;;;;;;;5.93;2.70;;;2.50;99.90;;;;;;4965479;29;20443;-46
2021/01/29 09:59:29;;;;;;;5.33;3.43;;;2.50;99.90;;;;;;4965690;29;20476;-52
2021/01/29 10:02:03;;;;;;;12.67;3.80;;;2.60;99.90;;;;;;4905741;29;20493;-47
2021/01/29 10:04:34;;;;;;;5.23;2.60;;;3.30;99.90;;;;;;4944893;29;20460;-46
2021/01/29 10:07:05;;;;;;;6.53;3.20;;;3.60;99.90;;;;;;4958060;29;20460;-45
2021/01/29 10:09:37;;;;;;;5.83;2.90;;;3.70;99.90;;;;;;4956539;29;20547;-47
2021/01/29 10:12:11;;;;;;;6.40;3.27;;;3.50;99.90;;;;;;4957150;29;20445;-49
2021/01/29 10:14:43;;;;;;;6.20;3.30;;;3.50;99.90;;;;;;4963613;29;20521;-50
2021/01/29 10:17:23;;;;;;;5.47;3.20;;;3.40;99.90;;;;;;4964117;29;20436;-47
2021/01/29 10:19:57;;;;;;;7.10;3.20;;;3.40;99.90;;;;;;4963182;29;20444;-49
2021/01/29 10:22:54;;;;;;;9.93;4.30;;;3.40;99.90;;;;;;4945204;29;20444;-48
2021/01/29 10:25:44;;;;;;;6.80;3.30;;;3.50;99.90;;;;;;4946590;29;20473;-47
2021/01/29 10:28:19;;;;;;;12.90;3.97;;;3.60;99.90;;;;;;4941745;29;21021;-47
2021/01/29 10:36:01;;;;;;;9.97;3.33;;;3.40;99.90;;;;;;4986742;28;20485;-47
2021/01/29 10:38:36;;;;;;;10.23;3.90;;;3.50;99.90;;;;;;4984415;28;20432;-51
2021/01/29 10:41:10;;;;;;;6.43;3.93;;;3.50;99.90;;;;;;4986604;28;20470;-54
2021/01/29 10:43:43;;;;;;;3.53;2.80;;;3.60;99.90;;;;;;4989399;28;20447;-54
2021/01/29 10:46:46;;;;;;;8.83;4.53;;;3.70;99.90;;;;;;4981259;28;20483;-50
2021/01/29 10:49:18;;;;;;;8.00;3.53;;;3.80;99.90;;;;;;4977840;28;20458;-47
2021/01/29 10:51:57;;;;;;;4.80;3.10;;;4.00;99.90;;;;;;4989759;28;20454;-54
2021/01/29 10:54:25;;;;;;;7.73;3.27;;;4.10;99.90;;;;;;4986005;28;20509;-54
2021/01/29 10:57:01;;;;;;;6.70;3.23;;;4.10;99.90;;;;;;4977426;28;20452;-48
2021/01/29 10:59:36;;;;;;;3.77;2.77;;;4.10;99.90;;;;;;4977219;28;20447;-49
2021/01/29 11:02:06;;;;;;;5.40;3.47;;;4.10;99.90;;;;;;4971316;28;20486;-48
2021/01/29 11:04:37;;;;;;;10.73;3.90;;;4.30;99.90;;;;;;4978569;28;20919;-48
2021/01/29 11:07:06;;;;;;;5.33;3.40;;;4.40;99.90;;;;;;4966362;28;20448;-48
2021/01/29 11:09:38;;;;;;;8.10;3.63;;;4.40;99.90;;;;;;4982481;28;20455;-54
2021/01/29 11:12:17;;;;;;;5.97;3.80;;;4.30;99.90;;;;;;4980675;28;20515;-51
2021/01/29 11:14:51;;;;;;;6.87;3.90;;;4.40;99.90;;;;;;4970938;28;20468;-49
2021/01/29 11:17:23;;;;;;;6.73;4.23;;;4.40;99.90;;;;;;4979980;28;20449;-51
2021/01/29 11:19:52;;;;;;;9.03;4.87;;;4.40;99.90;;;;;;4981445;28;20440;-53
2021/01/29 11:22:33;;;;;;;6.60;3.50;;;4.40;99.90;;;;;;4960431;28;21017;-48
2021/01/29 11:25:12;;;;;;;6.27;4.10;;;4.40;99.90;;;;;;4993053;28;20905;-53
2021/01/29 11:27:47;;;;;;;6.33;3.83;;;4.40;99.90;;;;;;4978428;28;20463;-52
2021/01/29 11:30:20;;;;;;;6.23;4.80;;;4.40;99.90;;;;;;4967605;28;20576;-48
2021/01/29 11:32:55;;;;;;;12.20;4.13;;;4.40;99.90;;;;;;4980887;28;20459;-47
2021/01/29 11:35:34;;;;;;;6.77;4.27;;;4.40;99.90;;;;;;4993035;28;20467;-48
2021/01/29 11:38:14;;;;;;;10.97;4.90;;;4.30;99.90;;;;;;4977756;28;20443;-48
2021/01/29 11:40:50;;;;;;;8.63;4.10;;;4.40;99.90;;;;;;4986012;28;20481;-50
2021/01/29 11:43:29;;;;;;;7.83;3.83;;;4.50;99.90;;;;;;4984566;28;20479;-49
2021/01/29 11:46:02;;;;;;;6.80;4.73;;;4.40;99.90;;;;;;4977606;28;20447;-47
2021/01/29 11:48:34;;;;;;;4.97;2.83;;;4.40;99.90;;;;;;4969467;28;20872;-52
2021/01/29 11:51:06;;;;;;;7.80;3.83;;;4.40;99.90;;;;;;4968052;28;20557;-54
2021/01/29 11:53:38;;;;;;;6.07;3.00;;;4.40;99.90;;;;;;4970507;28;20457;-55
2021/01/29 11:56:09;;;;;;;5.73;3.93;;;4.40;99.90;;;;;;4958204;28;20459;-56
2021/01/29 11:58:44;;;;;;;8.50;4.00;;;4.30;99.90;;;;;;4967889;28;20507;-51
2021/01/29 12:01:14;;;;;;;6.23;4.57;;;4.30;99.90;;;;;;4971321;28;20486;-50
2021/01/29 12:03:48;;;;;;;7.10;3.07;;;4.30;99.90;;;;;;4976624;28;20832;-52
2021/01/29 12:06:18;;;;;;;9.90;4.70;;;4.20;99.90;;;;;;4970451;28;20435;-51
2021/01/29 12:09:05;;;;;;;21.73;8.87;;;4.20;99.90;;;;;;4978589;28;20484;-51
2021/01/29 12:11:38;;;;;;;11.40;6.03;;;4.10;99.90;;;;;;4969143;28;20485;-55
2021/01/29 12:14:13;;;;;;;7.60;4.40;;;4.10;99.90;;;;;;4963215;28;20459;-50
2021/01/29 12:16:40;;;;;;;13.67;3.57;;;4.00;99.90;;;;;;4957571;28;20462;-55
2021/01/29 12:19:10;;;;;;;4.40;3.00;;;4.10;99.90;;;;;;4971523;28;20440;-51
2021/01/29 12:21:44;;;;;;;7.27;4.43;;;4.00;99.90;;;;;;4963163;28;20513;-50
2021/01/29 12:24:25;;;;;;;8.10;3.43;;;4.00;99.90;;;;;;4967284;28;20483;-53
2021/01/29 12:27:00;;;;;;;7.73;3.43;;;4.00;99.90;;;;;;4978661;28;20480;-51
2021/01/29 12:29:36;;;;;;;2.97;2.30;;;3.90;99.90;;;;;;4965136;28;20447;-47
2021/01/29 12:32:33;;;;;;;5.60;3.13;;;3.80;99.90;;;;;;4979766;28;20446;-49
2021/01/29 12:35:07;;;;;;;4.97;2.93;;;3.80;99.90;;;;;;4973817;28;20571;-48
2021/01/29 12:37:36;;;;;;;7.60;3.47;;;3.70;99.90;;;;;;4969215;28;20448;-48
2021/01/29 12:40:08;;;;;;;5.57;2.87;;;3.70;99.90;;;;;;4979810;28;20528;-51
2021/01/29 12:42:55;;;;;;;8.60;5.13;;;3.70;99.90;;;;;;4970258;28;20438;-54
2021/01/29 12:45:25;;;;;;;7.10;3.03;;;3.60;99.90;;;;;;4975054;28;20451;-50
2021/01/29 12:47:57;;;;;;;6.30;3.00;;;3.70;99.90;;;;;;4970543;28;20435;-55
2021/01/29 12:50:56;;;;;;;4.57;2.83;;;3.70;99.90;;;;;;4975400;28;20463;-55
2021/01/29 12:53:31;;;;;;;14.97;3.63;;;3.60;99.90;;;;;;4936249;28;20471;-50
2021/01/29 12:56:11;;;;;;;4.67;2.50;;;3.70;99.90;;;;;;4979171;28;20793;-55
2021/01/29 12:58:40;;;;;;;5.13;3.23;;;3.60;99.90;;;;;;4980589;28;20455;-51
2021/01/29 13:01:08;;;;;;;2.40;2.20;;;3.60;99.90;;;;;;4979963;28;20479;-50
2021/01/29 13:03:48;;;;;;;3.90;2.87;;;3.70;99.90;;;;;;4971797;28;20459;-50
2021/01/29 13:06:24;;;;;;;6.90;3.33;;;3.70;99.90;;;;;;4975578;28;20718;-50
2021/01/29 13:09:26;;;;;;;6.47;3.03;;;3.70;99.90;;;;;;4972438;28;20865;-49
2021/01/29 13:12:04;;;;;;;4.43;3.07;;;3.70;99.90;;;;;;4940169;28;20459;-49
2021/01/29 13:14:40;;;;;;;9.97;2.47;;;3.70;99.90;;;;;;4971663;28;20455;-51
2021/01/29 13:17:28;;;;;;;9.83;3.50;;;3.70;99.90;;;;;;4977070;28;20451;-52
2021/01/29 13:20:04;;;;;;;5.90;2.63;;;3.70;99.90;;;;;;4975981;28;20456;-56
2021/01/29 13:22:40;;;;;;;5.10;3.27;;;3.70;99.90;;;;;;4977836;28;20483;-52
2021/01/29 13:25:16;;;;;;;6.73;3.00;;;3.70;99.90;;;;;;4986905;28;20437;-51
2021/01/29 13:27:47;;;;;;;4.53;3.03;;;3.70;99.90;;;;;;4981402;28;20466;-51
2021/01/29 13:30:20;;;;;;;7.20;3.23;;;3.60;99.90;;;;;;4973723;28;20439;-49
2021/01/29 13:32:48;;;;;;;12.93;3.63;;;3.60;99.90;;;;;;4969972;28;20523;-52
2021/01/29 13:35:23;;;;;;;7.33;3.83;;;3.50;99.90;;;;;;4979303;28;20483;-51
2021/01/29 13:37:51;;;;;;;7.40;3.20;;;3.50;99.90;;;;;;4973399;28;20478;-54
2021/01/29 13:40:25;;;;;;;6.50;3.03;;;3.50;99.90;;;;;;4986053;28;20450;-56
2021/01/29 13:42:55;;;;;;;9.40;4.03;;;3.40;99.90;;;;;;4973885;28;20453;-48
2021/01/29 13:45:26;;;;;;;7.20;4.50;;;3.40;99.90;;;;;;4976494;28;20456;-52
2021/01/29 13:48:04;;;;;;;3.93;3.20;;;3.40;99.90;;;;;;4974530;28;20539;-53
2021/01/29 13:50:35;;;;;;;7.27;3.60;;;3.40;99.90;;;;;;4970365;28;20487;-51
2021/01/29 13:53:03;;;;;;;4.70;3.23;;;3.40;99.90;;;;;;4967015;28;20464;-52
2021/01/29 13:55:33;;;;;;;7.70;2.57;;;3.30;99.90;;;;;;4973987;28;20472;-50
2021/01/29 13:58:06;;;;;;;11.10;3.90;;;3.30;99.90;;;;;;4973751;28;20455;-50
2021/01/29 14:00:38;;;;;;;8.73;2.60;;;3.30;99.90;;;;;;4965527;28;20480;-49
2021/01/29 14:03:11;;;;;;;7.83;3.87;;;3.30;99.90;;;;;;4975261;28;20478;-56
2021/01/29 14:05:40;;;;;;;3.73;3.23;;;3.30;99.90;;;;;;4974272;28;20459;-53
2021/01/29 14:08:07;;;;;;;7.10;3.27;;;3.30;99.90;;;;;;4975214;28;20452;-53
2021/01/29 14:10:36;;;;;;;4.53;3.23;;;3.20;99.90;;;;;;4974251;28;20506;-53
2021/01/29 14:13:20;;;;;;;8.80;3.80;;;3.30;99.90;;;;;;4986007;28;20542;-51
2021/01/29 14:15:55;;;;;;;7.23;3.63;;;3.20;99.90;;;;;;5508768;23;20497;-53
2021/01/29 14:18:39;;;;;;;9.50;3.77;;;3.30;99.90;;;;;;4937225;29;20464;-53
2021/01/29 14:21:19;;;;;;;7.10;3.40;;;3.20;99.90;;;;;;4935540;29;20496;-55
2021/01/29 14:23:51;;;;;;;10.30;3.93;;;3.20;99.90;;;;;;4952702;29;20464;-54
2021/01/29 14:26:26;;;;;;;5.70;2.70;;;3.20;99.90;;;;;;4959166;29;20475;-56
2021/01/29 14:29:00;;;;;;;7.27;4.67;;;3.20;99.90;;;;;;4960929;29;20444;-55
2021/01/29 14:31:34;;;;;;;5.07;3.10;;;3.10;99.90;;;;;;4953788;29;20439;-54
2021/01/29 14:34:25;;;;;;;4.83;3.00;;;3.20;99.90;;;;;;4953610;29;20474;-58
2021/01/29 14:37:00;;;;;;;3.67;2.90;;;3.10;99.90;;;;;;4960891;29;20535;-56
2021/01/29 14:40:02;;;;;;;7.33;2.97;;;3.00;99.90;;;;;;4957333;29;20452;-52
2021/01/29 14:42:45;;;;;;;7.73;3.20;;;3.00;99.90;;;;;;4945973;29;20611;-55
2021/01/29 14:45:44;;;;;;;3.50;2.70;;;3.00;99.90;;;;;;4948690;29;20532;-50
2021/01/29 14:48:25;;;;;;;7.43;3.80;;;3.00;99.90;;;;;;4949313;29;20864;-52
2021/01/29 14:51:11;;;;;;;14.00;4.10;;;3.00;99.90;;;;;;4947624;29;20444;-52
2021/01/29 14:53:44;;;;;;;5.17;3.73;;;2.90;99.90;;;;;;4951568;29;20932;-53
2021/01/29 14:56:16;;;;;;;10.10;4.17;;;2.90;99.90;;;;;;4951458;29;20445;-52
2021/01/29 14:58:47;;;;;;;8.20;2.90;;;2.90;99.90;;;;;;4949261;29;20453;-51
2021/01/29 15:01:18;;;;;;;8.13;3.37;;;2.90;99.90;;;;;;4957454;29;20492;-49
2021/01/29 15:03:50;;;;;;;4.60;3.57;;;2.90;99.90;;;;;;4961517;29;20457;-51
2021/01/29 15:06:21;;;;;;;4.03;2.67;;;2.90;99.90;;;;;;4959808;29;20461;-52
2021/01/29 15:08:51;;;;;;;6.37;3.00;;;2.90;99.90;;;;;;4960186;29;20448;-54
2021/01/29 15:11:21;;;;;;;6.50;4.40;;;2.80;99.90;;;;;;4960077;29;20448;-54
2021/01/29 15:13:56;;;;;;;5.70;3.13;;;2.80;99.90;;;;;;4960105;29;20470;-52
2021/01/29 15:16:51;;;;;;;2.97;2.67;;;2.70;99.90;;;;;;4959929;29;20480;-53
2021/01/29 15:19:35;;;;;;;4.50;3.37;;;2.70;99.90;;;;;;4960007;29;20445;-53
2021/01/29 15:22:14;;;;;;;10.27;3.67;;;2.70;99.90;;;;;;4956486;29;20496;-52
2021/01/29 15:24:45;;;;;;;9.10;3.23;;;2.70;99.90;;;;;;4959896;29;20445;-52
2021/01/29 15:27:33;;;;;;;10.57;3.43;;;2.70;99.90;;;;;;4956764;29;20445;-56
2021/01/29 15:30:07;;;;;;;3.33;2.73;;;2.70;99.90;;;;;;4953946;29;20607;-51
2021/01/29 15:32:39;;;;;;;4.63;3.77;;;2.70;99.90;;;;;;4954007;29;20423;-55
2021/01/29 15:35:29;;;;;;;8.87;4.67;;;2.70;99.90;;;;;;4959955;29;20484;-52
2021/01/29 15:38:33;;;;;;;7.97;4.93;;;2.60;99.90;;;;;;4957213;29;20453;-50
2021/01/29 15:41:27;;;;;;;9.70;4.30;;;2.70;99.90;;;;;;4949809;29;20484;-55
2021/01/29 15:43:55;;;;;;;5.10;4.17;;;2.70;99.90;;;;;;4952113;29;20899;-49
2021/01/29 15:46:42;;;;;;;8.93;4.20;;;2.60;99.90;;;;;;4958225;29;20445;-56
2021/01/29 15:49:09;;;;;;;9.17;4.93;;;2.50;99.90;;;;;;4951343;29;20437;-50
2021/01/29 15:51:57;;;;;;;5.13;3.67;;;2.40;99.90;;;;;;4953684;29;20445;-52
2021/01/29 15:54:39;;;;;;;10.67;4.27;;;2.40;99.90;;;;;;4953241;29;20464;-54
2021/01/29 15:57:11;;;;;;;6.43;3.70;;;2.30;99.90;;;;;;4953920;29;20460;-46
2021/01/29 15:59:43;;;;;;;8.20;4.20;;;2.30;99.90;;;;;;4953395;29;20868;-47
2021/01/29 16:02:22;;;;;;;6.70;4.00;;;2.30;99.90;;;;;;4953526;29;20484;-53
2021/01/29 16:04:50;;;;;;;5.53;3.40;;;2.30;99.90;;;;;;4954724;29;20501;-50
2021/01/29 16:07:24;;;;;;;10.33;3.47;;;2.20;99.90;;;;;;4954687;29;20453;-52
2021/01/29 16:10:06;;;;;;;8.40;4.30;;;2.20;99.90;;;;;;4954913;29;20477;-52
2021/01/29 16:12:39;;;;;;;5.80;4.60;;;2.20;99.90;;;;;;4955952;29;20449;-52
2021/01/29 16:15:23;;;;;;;8.27;4.50;;;2.10;99.90;;;;;;4955840;29;20459;-54
2021/01/29 16:17:52;;;;;;;7.17;4.27;;;2.10;99.90;;;;;;4955193;29;20443;-51
2021/01/29 16:20:22;;;;;;;6.03;5.43;;;2.10;99.90;;;;;;4955095;29;20481;-51
2021/01/29 16:22:57;;;;;;;9.23;5.43;;;2.10;99.90;;;;;;4954409;29;20480;-49
2021/01/29 16:25:24;;;;;;;9.30;4.10;;;2.20;99.90;;;;;;4955543;29;20455;-51
2021/01/29 16:27:51;;;;;;;10.17;5.40;;;2.20;99.90;;;;;;4954643;29;20433;-52
2021/01/29 16:30:27;;;;;;;9.93;5.40;;;2.10;99.90;;;;;;4955421;29;20495;-52
2021/01/29 16:33:00;;;;;;;6.30;4.03;;;2.10;99.90;;;;;;4957370;29;20436;-47
2021/01/29 16:35:33;;;;;;;9.10;4.03;;;2.10;99.90;;;;;;4957773;29;20469;-51
2021/01/29 16:38:01;;;;;;;8.20;3.90;;;2.10;99.90;;;;;;4955299;29;20463;-54
2021/01/29 16:40:37;;;;;;;8.70;4.57;;;2.10;99.90;;;;;;4954140;29;20521;-56
2021/01/29 16:43:07;;;;;;;9.60;5.47;;;2.10;99.90;;;;;;4954218;29;20432;-52
2021/01/29 16:45:37;;;;;;;15.50;7.30;;;2.00;99.90;;;;;;4953504;29;20445;-51
2021/01/29 16:48:08;;;;;;;9.13;6.47;;;2.00;99.90;;;;;;4952801;29;20461;-49
2021/01/29 16:50:43;;;;;;;9.57;6.10;;;2.00;99.90;;;;;;4952375;29;20475;-52
2021/01/29 16:53:14;;;;;;;9.83;6.33;;;2.00;99.90;;;;;;4955226;29;20484;-55
2021/01/29 16:55:42;;;;;;;7.10;5.00;;;2.00;99.90;;;;;;4959703;29;20468;-53
2021/01/29 16:58:22;;;;;;;7.20;5.40;;;2.00;99.90;;;;;;4959848;29;20444;-53
2021/01/29 17:00:51;;;;;;;8.50;5.23;;;2.00;99.90;;;;;;4960083;29;20480;-50
2021/01/29 17:03:32;;;;;;;10.00;5.60;;;2.00;99.90;;;;;;4960187;29;20472;-47
2021/01/29 17:06:07;;;;;;;7.50;5.53;;;2.00;99.90;;;;;;4946559;29;20468;-54
2021/01/29 17:08:35;;;;;;;10.87;4.90;;;2.00;99.90;;;;;;4958784;29;20432;-52
2021/01/29 17:11:19;;;;;;;8.90;5.00;;;1.90;99.90;;;;;;4958715;29;20441;-50
2021/01/29 17:13:47;;;;;;;13.23;5.60;;;1.90;99.90;;;;;;4959296;29;20464;-50
2021/01/29 17:16:23;;;;;;;8.13;5.40;;;1.90;99.90;;;;;;4958692;29;20491;-50
2021/01/29 17:18:53;;;;;;;6.80;4.13;;;1.90;99.90;;;;;;4958770;29;20432;-51
2021/01/29 17:21:20;;;;;;;11.60;5.67;;;1.90;99.90;;;;;;4959030;29;20545;-48
2021/01/29 17:23:48;;;;;;;9.70;5.70;;;1.90;99.90;;;;;;4958772;29;20436;-51